createdAt,value
2017-11-29T00:00:22.512Z,4.41
2017-11-29T00:01:22.364Z,4.45
2017-11-29T00:02:22.424Z,4.38
2017-11-29T00:03:22.310Z,4.31
2017-11-29T00:04:22.332Z,4.35
2017-11-29T00:05:22.340Z,4.35
2017-11-29T00:06:22.228Z,4.35
2017-11-29T00:07:22.248Z,4.37
2017-11-29T00:08:22.175Z,4.35
2017-11-29T00:09:22.265Z,4.38
2017-11-29T00:10:22.119Z,4.35
2017-11-29T00:11:22.170Z,4.32
2017-11-29T00:12:22.060Z,4.37
2017-11-29T00:13:22.081Z,4.37
2017-11-29T00:14:22.009Z,4.34
2017-11-29T00:15:22.094Z,4.35
2017-11-29T00:16:21.958Z,4.37
2017-11-29T00:17:22.002Z,4.37
2017-11-29T00:18:21.903Z,4.40
2017-11-29T00:19:21.918Z,4.37
2017-11-29T00:20:21.853Z,4.37
2017-11-29T00:21:21.828Z,4.42
2017-11-29T00:22:21.787Z,4.35
2017-11-29T00:23:21.839Z,4.37
2017-11-29T00:24:21.737Z,4.34
2017-11-29T00:25:21.752Z,4.37
2017-11-29T00:26:21.689Z,4.44
2017-11-29T00:27:21.657Z,4.38
2017-11-29T00:28:21.769Z,4.42
2017-11-29T00:29:21.606Z,4.35
2017-11-29T00:30:21.783Z,4.37
2017-11-29T00:31:21.545Z,4.31
2017-11-29T00:32:21.693Z,4.37
2017-11-29T00:33:21.492Z,4.35
2017-11-29T00:34:21.597Z,4.41
2017-11-29T00:35:21.434Z,4.34
2017-11-29T00:36:21.610Z,4.38
2017-11-29T00:37:21.384Z,4.34
2017-11-29T00:38:21.526Z,4.38
2017-11-29T00:39:21.332Z,4.38
2017-11-29T00:40:21.328Z,4.38
2017-11-29T00:41:21.283Z,4.42
2017-11-29T00:42:21.446Z,4.44
2017-11-29T00:43:21.223Z,4.40
2017-11-29T00:44:21.195Z,4.31
2017-11-29T00:45:21.361Z,4.19
2017-11-29T00:46:21.135Z,4.24
2017-11-29T00:47:21.170Z,4.32
2017-11-29T00:48:21.084Z,4.32
2017-11-29T00:49:21.057Z,4.20
2017-11-29T00:50:21.029Z,4.19
2017-11-29T00:51:21.199Z,4.28
2017-11-29T00:52:20.979Z,4.19
2017-11-29T00:53:21.099Z,4.28
2017-11-29T00:54:20.924Z,4.24
2017-11-29T00:55:21.008Z,4.19
2017-11-29T00:56:20.869Z,4.19
2017-11-29T00:57:20.921Z,4.17
2017-11-29T00:58:20.816Z,4.20
2017-11-29T00:59:20.829Z,4.19
2017-11-29T01:00:20.753Z,4.24
2017-11-29T01:01:20.842Z,4.20
2017-11-29T01:02:20.704Z,4.17
2017-11-29T01:03:20.753Z,4.19
2017-11-29T01:04:20.655Z,4.16
2017-11-29T01:05:20.761Z,4.20
2017-11-29T01:06:20.596Z,4.17
2017-11-29T01:07:20.675Z,4.20
2017-11-29T01:08:20.544Z,4.19
2017-11-29T01:09:20.687Z,4.24
2017-11-29T01:10:20.488Z,4.16
2017-11-29T01:11:20.454Z,4.19
2017-11-29T01:12:20.433Z,4.16
2017-11-29T01:13:20.505Z,4.24
2017-11-29T01:14:20.382Z,4.22
2017-11-29T01:15:20.521Z,4.17
2017-11-29T01:16:20.332Z,4.19
2017-11-29T01:17:20.429Z,4.16
2017-11-29T01:18:20.270Z,4.17
2017-11-29T01:19:20.343Z,4.22
2017-11-29T01:20:20.212Z,4.17
2017-11-29T01:21:20.355Z,4.23
2017-11-29T01:22:20.160Z,4.19
2017-11-29T01:23:20.132Z,4.19
2017-11-29T01:24:20.101Z,4.19
2017-11-29T01:25:20.172Z,4.23
2017-11-29T01:26:20.054Z,4.24
2017-11-29T01:27:20.185Z,4.19
2017-11-29T01:28:19.998Z,4.20
2017-11-29T01:29:19.961Z,4.19
2017-11-29T01:30:20.099Z,4.20
2017-11-29T01:31:19.910Z,4.12
2017-11-29T01:32:20.008Z,4.14
2017-11-29T01:33:19.855Z,4.22
2017-11-29T01:34:19.918Z,4.17
2017-11-29T01:35:19.800Z,4.20
2017-11-29T01:36:19.780Z,4.17
2017-11-29T01:37:19.845Z,4.14
2017-11-29T01:38:19.725Z,4.16
2017-11-29T01:39:19.742Z,4.10
2017-11-29T01:40:19.856Z,4.10
2017-11-29T01:41:19.640Z,4.06
2017-11-29T01:42:19.763Z,4.05
2017-11-29T01:43:19.592Z,4.23
2017-11-29T01:44:19.680Z,4.19
2017-11-29T01:45:19.537Z,4.28
2017-11-29T01:46:19.503Z,4.19
2017-11-29T01:47:19.484Z,4.19
2017-11-29T01:48:19.598Z,4.35
2017-11-29T01:49:19.435Z,4.40
2017-11-29T01:50:19.516Z,4.34
2017-11-29T01:51:19.371Z,4.31
2017-11-29T01:52:19.343Z,4.35
2017-11-29T01:53:19.421Z,4.38
2017-11-29T01:54:19.283Z,4.37
2017-11-29T01:55:19.434Z,4.40
2017-11-29T01:56:19.227Z,4.34
2017-11-29T01:57:19.343Z,4.40
2017-11-29T01:58:19.190Z,4.40
2017-11-29T01:59:19.146Z,4.34
2017-11-29T02:00:19.276Z,4.41
2017-11-29T02:01:19.099Z,4.42
2017-11-29T02:02:19.167Z,4.37
2017-11-29T02:03:19.036Z,4.41
2017-11-29T02:04:19.077Z,4.38
2017-11-29T02:05:18.990Z,4.31
2017-11-29T02:06:18.987Z,4.35
2017-11-29T02:07:18.930Z,4.38
2017-11-29T02:08:19.000Z,4.32
2017-11-29T02:09:18.880Z,4.34
2017-11-29T02:10:18.910Z,4.32
2017-11-29T02:11:18.822Z,4.37
2017-11-29T02:12:18.922Z,4.31
2017-11-29T02:13:18.797Z,4.38
2017-11-29T02:14:18.832Z,4.32
2017-11-29T02:15:18.737Z,4.34
2017-11-29T02:16:18.696Z,4.41
2017-11-29T02:17:18.749Z,4.37
2017-11-29T02:18:18.631Z,4.44
2017-11-29T02:19:18.766Z,4.35
2017-11-29T02:20:18.581Z,4.37
2017-11-29T02:21:18.554Z,4.35
2017-11-29T02:22:18.526Z,4.35
2017-11-29T02:23:18.581Z,4.37
2017-11-29T02:24:18.473Z,4.35
2017-11-29T02:25:18.594Z,4.40
2017-11-29T02:26:18.411Z,4.40
2017-11-29T02:27:18.402Z,4.35
2017-11-29T02:28:18.509Z,4.26
2017-11-29T02:29:18.330Z,4.30
2017-11-29T02:30:18.418Z,4.32
2017-11-29T02:31:18.294Z,4.28
2017-11-29T02:32:18.326Z,4.24
2017-11-29T02:33:18.336Z,4.23
2017-11-29T02:34:18.192Z,4.26
2017-11-29T02:35:18.247Z,4.24
2017-11-29T02:36:18.141Z,4.23
2017-11-29T02:37:18.260Z,4.34
2017-11-29T02:38:18.167Z,4.30
2017-11-29T02:39:18.060Z,4.24
2017-11-29T02:40:18.072Z,4.28
2017-11-29T02:41:18.004Z,4.40
2017-11-29T02:42:18.084Z,4.23
2017-11-29T02:43:17.954Z,4.40
2017-11-29T02:44:17.993Z,4.31
2017-11-29T02:45:17.895Z,4.40
2017-11-29T02:46:18.008Z,4.37
2017-11-29T02:47:17.849Z,4.32
2017-11-29T02:48:17.917Z,4.38
2017-11-29T02:49:17.785Z,4.35
2017-11-29T02:50:17.760Z,4.40
2017-11-29T02:51:17.833Z,4.37
2017-11-29T02:52:17.718Z,4.37
2017-11-29T02:53:17.744Z,4.35
2017-11-29T02:54:17.653Z,4.41
2017-11-29T02:55:17.759Z,4.35
2017-11-29T02:56:17.602Z,4.37
2017-11-29T02:57:17.664Z,4.35
2017-11-29T02:58:17.544Z,4.35
2017-11-29T02:59:17.574Z,4.35
2017-11-29T03:00:17.488Z,4.37
2017-11-29T03:01:17.586Z,4.48
2017-11-29T03:02:17.432Z,4.38
2017-11-29T03:03:17.544Z,4.49
2017-11-29T03:04:17.384Z,4.44
2017-11-29T03:05:17.419Z,4.45
2017-11-29T03:06:17.326Z,4.49
2017-11-29T03:07:17.418Z,4.48
2017-11-29T03:08:17.277Z,4.42
2017-11-29T03:09:17.326Z,4.44
2017-11-29T03:10:17.221Z,4.58
2017-11-29T03:11:17.238Z,4.53
2017-11-29T03:12:17.169Z,4.59
2017-11-29T03:13:17.138Z,4.62
2017-11-29T03:14:17.117Z,4.62
2017-11-29T03:15:17.166Z,4.58
2017-11-29T03:16:17.052Z,4.59
2017-11-29T03:17:17.072Z,4.62
2017-11-29T03:18:17.006Z,4.59
2017-11-29T03:19:16.969Z,4.59
2017-11-29T03:20:16.949Z,4.59
2017-11-29T03:21:16.992Z,4.50
2017-11-29T03:22:16.895Z,4.62
2017-11-29T03:23:16.901Z,4.44
2017-11-29T03:24:16.843Z,4.60
2017-11-29T03:25:16.805Z,4.48
2017-11-29T03:26:16.817Z,4.52
2017-11-29T03:27:16.762Z,4.60
2017-11-29T03:28:16.831Z,4.58
2017-11-29T03:29:16.697Z,4.60
2017-11-29T03:30:16.844Z,4.60
2017-11-29T03:31:16.666Z,4.58
2017-11-29T03:32:16.754Z,4.58
2017-11-29T03:33:16.590Z,4.62
2017-11-29T03:34:16.663Z,4.67
2017-11-29T03:35:16.534Z,4.58
2017-11-29T03:36:16.674Z,4.67
2017-11-29T03:37:16.488Z,4.66
2017-11-29T03:38:16.581Z,4.60
2017-11-29T03:39:16.430Z,4.68
2017-11-29T03:40:16.596Z,4.71
2017-11-29T03:41:16.380Z,4.73
2017-11-29T03:42:16.515Z,4.68
2017-11-29T03:43:16.326Z,4.68
2017-11-29T03:44:16.415Z,4.80
2017-11-29T03:45:16.274Z,4.73
2017-11-29T03:46:16.431Z,4.82
2017-11-29T03:47:16.209Z,4.71
2017-11-29T03:48:16.188Z,4.75
2017-11-29T03:49:16.165Z,4.74
2017-11-29T03:50:16.247Z,4.78
2017-11-29T03:51:16.111Z,4.78
2017-11-29T03:52:16.262Z,4.82
2017-11-29T03:53:16.047Z,4.80
2017-11-29T03:54:16.029Z,4.80
2017-11-29T03:55:16.000Z,4.73
2017-11-29T03:56:16.081Z,4.75
2017-11-29T03:57:15.941Z,4.77
2017-11-29T03:58:16.103Z,4.71
2017-11-29T03:59:15.892Z,4.78
2017-11-29T04:00:15.869Z,4.84
2017-11-29T04:01:16.013Z,4.77
2017-11-29T04:02:15.816Z,4.87
2017-11-29T04:03:15.920Z,4.75
2017-11-29T04:04:15.758Z,4.74
2017-11-29T04:05:15.827Z,4.84
2017-11-29T04:06:15.701Z,4.80
2017-11-29T04:07:15.846Z,4.71
2017-11-29T04:08:15.645Z,4.84
2017-11-29T04:09:15.746Z,4.77
2017-11-29T04:10:15.591Z,4.66
2017-11-29T04:11:15.566Z,4.63
2017-11-29T04:12:15.542Z,4.74
2017-11-29T04:13:15.675Z,4.67
2017-11-29T04:14:15.479Z,4.66
2017-11-29T04:15:15.584Z,4.63
2017-11-29T04:16:15.426Z,4.60
2017-11-29T04:17:15.596Z,4.60
2017-11-29T04:18:15.374Z,4.63
2017-11-29T04:19:15.507Z,4.68
2017-11-29T04:20:15.319Z,4.66
2017-11-29T04:21:15.416Z,4.60
2017-11-29T04:22:15.270Z,4.60
2017-11-29T04:23:15.238Z,4.63
2017-11-29T04:24:15.210Z,4.66
2017-11-29T04:25:15.343Z,4.70
2017-11-29T04:26:15.153Z,4.66
2017-11-29T04:27:15.247Z,4.71
2017-11-29T04:28:15.101Z,4.66
2017-11-29T04:29:15.073Z,4.70
2017-11-29T04:30:15.168Z,4.70
2017-11-29T04:31:15.018Z,4.77
2017-11-29T04:32:15.171Z,4.73
2017-11-29T04:33:14.970Z,4.68
2017-11-29T04:34:14.943Z,4.63
2017-11-29T04:35:14.914Z,4.66
2017-11-29T04:36:14.993Z,4.70
2017-11-29T04:37:14.862Z,4.63
2017-11-29T04:38:15.009Z,4.66
2017-11-29T04:39:14.803Z,4.66
2017-11-29T04:40:14.922Z,4.74
2017-11-29T04:41:14.765Z,4.84
2017-11-29T04:42:14.835Z,4.71
2017-11-29T04:43:14.697Z,4.71
2017-11-29T04:44:14.838Z,4.75
2017-11-29T04:45:14.644Z,4.66
2017-11-29T04:46:14.618Z,4.68
2017-11-29T04:47:14.590Z,4.62
2017-11-29T04:48:14.666Z,4.75
2017-11-29T04:49:14.528Z,4.74
2017-11-29T04:50:14.670Z,4.62
2017-11-29T04:51:14.482Z,4.70
2017-11-29T04:52:14.455Z,4.71
2017-11-29T04:53:14.422Z,4.66
2017-11-29T04:54:14.488Z,4.67
2017-11-29T04:55:14.374Z,4.63
2017-11-29T04:56:14.502Z,4.63
2017-11-29T04:57:14.315Z,4.68
2017-11-29T04:58:14.302Z,4.62
2017-11-29T04:59:14.420Z,4.60
2017-11-29T05:00:14.240Z,4.67
2017-11-29T05:01:14.329Z,4.58
2017-11-29T05:02:14.188Z,4.55
2017-11-29T05:03:14.237Z,4.60
2017-11-29T05:04:14.130Z,4.60
2017-11-29T05:05:14.250Z,4.55
2017-11-29T05:06:14.077Z,4.62
2017-11-29T05:07:14.166Z,4.55
2017-11-29T05:08:14.019Z,4.58
2017-11-29T05:09:13.999Z,4.63
2017-11-29T05:10:13.963Z,4.53
2017-11-29T05:11:14.090Z,4.55
2017-11-29T05:12:13.917Z,4.55
2017-11-29T05:13:13.997Z,4.45
2017-11-29T05:14:14.002Z,4.52
2017-11-29T05:15:13.834Z,4.66
2017-11-29T05:16:13.909Z,4.58
2017-11-29T05:17:13.779Z,4.55
2017-11-29T05:18:13.819Z,4.53
2017-11-29T05:19:13.717Z,4.53
2017-11-29T05:20:13.700Z,4.49
2017-11-29T05:21:13.733Z,4.55
2017-11-29T05:22:13.650Z,4.56
2017-11-29T05:23:13.769Z,4.45
2017-11-29T05:24:13.588Z,4.44
2017-11-29T05:25:13.559Z,4.48
2017-11-29T05:26:13.664Z,4.35
2017-11-29T05:27:13.507Z,4.41
2017-11-29T05:28:13.580Z,4.38
2017-11-29T05:29:13.444Z,4.40
2017-11-29T05:30:13.418Z,4.34
2017-11-29T05:31:13.394Z,4.40
2017-11-29T05:32:13.501Z,4.45
2017-11-29T05:33:13.343Z,4.35
2017-11-29T05:34:13.404Z,4.38
2017-11-29T05:35:13.415Z,4.23
2017-11-29T05:36:13.260Z,4.20
2017-11-29T05:37:13.322Z,4.23
2017-11-29T05:38:13.200Z,4.26
2017-11-29T05:39:13.233Z,4.17
2017-11-29T05:40:13.153Z,4.19
2017-11-29T05:41:13.245Z,4.13
2017-11-29T05:42:13.105Z,4.19
2017-11-29T05:43:13.160Z,4.16
2017-11-29T05:44:13.044Z,4.06
2017-11-29T05:45:13.023Z,4.05
2017-11-29T05:46:12.991Z,4.10
2017-11-29T05:47:13.079Z,4.08
2017-11-29T05:48:12.942Z,4.05
2017-11-29T05:49:12.989Z,3.99
2017-11-29T05:50:12.872Z,4.05
2017-11-29T05:51:12.859Z,4.05
2017-11-29T05:52:12.904Z,4.05
2017-11-29T05:53:12.791Z,4.05
2017-11-29T05:54:12.812Z,4.02
2017-11-29T05:55:12.751Z,3.98
2017-11-29T05:56:12.824Z,4.02
2017-11-29T05:57:12.833Z,3.98
2017-11-29T05:58:12.660Z,4.05
2017-11-29T05:59:12.741Z,4.05
2017-11-29T06:00:12.610Z,4.04
2017-11-29T06:01:12.573Z,4.04
2017-11-29T06:02:12.548Z,4.04
2017-11-29T06:03:12.558Z,4.04
2017-11-29T06:04:12.500Z,4.02
2017-11-29T06:05:12.548Z,3.99
2017-11-29T06:06:12.443Z,3.94
2017-11-29T06:07:12.457Z,3.96
2017-11-29T06:08:12.392Z,4.01
2017-11-29T06:09:12.393Z,3.98
2017-11-29T06:10:12.337Z,4.02
2017-11-29T06:11:12.383Z,3.99
2017-11-29T06:12:12.290Z,4.01
2017-11-29T06:13:12.314Z,3.95
2017-11-29T06:14:12.227Z,4.01
2017-11-29T06:15:12.197Z,4.02
2017-11-29T06:16:12.172Z,4.01
2017-11-29T06:17:12.232Z,3.99
2017-11-29T06:18:12.114Z,3.95
2017-11-29T06:19:12.149Z,3.98
2017-11-29T06:20:12.062Z,3.99
2017-11-29T06:21:12.053Z,3.98
2017-11-29T06:22:12.062Z,4.02
2017-11-29T06:23:11.980Z,3.99
2017-11-29T06:24:11.967Z,4.01
2017-11-29T06:25:11.928Z,3.98
2017-11-29T06:26:11.987Z,4.01
2017-11-29T06:27:11.873Z,3.99
2017-11-29T06:28:11.835Z,4.01
2017-11-29T06:29:11.901Z,4.05
2017-11-29T06:30:11.786Z,4.05
2017-11-29T06:31:11.812Z,4.06
2017-11-29T06:32:11.728Z,4.05
2017-11-29T06:33:11.725Z,4.05
2017-11-29T06:34:11.675Z,4.05
2017-11-29T06:35:11.668Z,4.10
2017-11-29T06:36:11.617Z,4.04
2017-11-29T06:37:11.646Z,4.10
2017-11-29T06:38:11.573Z,4.08
2017-11-29T06:39:11.655Z,4.05
2017-11-29T06:40:11.535Z,4.13
2017-11-29T06:41:11.670Z,4.12
2017-11-29T06:42:11.460Z,4.12
2017-11-29T06:43:11.478Z,4.13
2017-11-29T06:44:11.411Z,4.06
2017-11-29T06:45:11.384Z,4.20
2017-11-29T06:46:11.359Z,4.14
2017-11-29T06:47:11.395Z,4.16
2017-11-29T06:48:11.293Z,4.12
2017-11-29T06:49:11.317Z,4.17
2017-11-29T06:50:11.248Z,4.20
2017-11-29T06:51:11.321Z,4.22
2017-11-29T06:52:11.192Z,4.20
2017-11-29T06:53:11.162Z,4.19
2017-11-29T06:54:11.134Z,4.19
2017-11-29T06:55:11.138Z,4.24
2017-11-29T06:56:11.076Z,4.22
2017-11-29T06:57:11.151Z,4.17
2017-11-29T06:58:11.115Z,4.26
2017-11-29T06:59:11.059Z,4.24
2017-11-29T07:00:10.967Z,4.26
2017-11-29T07:01:10.977Z,4.23
2017-11-29T07:02:10.909Z,4.30
2017-11-29T07:03:10.986Z,4.19
2017-11-29T07:04:10.863Z,4.24
2017-11-29T07:05:10.893Z,4.22
2017-11-29T07:06:10.802Z,4.19
2017-11-29T07:07:10.811Z,4.19
2017-11-29T07:08:10.750Z,4.31
2017-11-29T07:09:10.822Z,4.37
2017-11-29T07:10:10.689Z,4.23
2017-11-29T07:11:10.726Z,4.22
2017-11-29T07:12:10.643Z,4.20
2017-11-29T07:13:10.638Z,4.26
2017-11-29T07:14:10.582Z,4.31
2017-11-29T07:15:10.648Z,4.38
2017-11-29T07:16:10.533Z,4.32
2017-11-29T07:17:10.555Z,4.34
2017-11-29T07:18:10.479Z,4.35
2017-11-29T07:19:10.465Z,4.30
2017-11-29T07:20:10.427Z,4.35
2017-11-29T07:21:10.480Z,4.30
2017-11-29T07:22:10.369Z,4.35
2017-11-29T07:23:10.395Z,4.19
2017-11-29T07:24:10.316Z,4.26
2017-11-29T07:25:10.398Z,4.22
2017-11-29T07:26:10.263Z,4.23
2017-11-29T07:27:10.314Z,4.24
2017-11-29T07:28:10.209Z,4.32
2017-11-29T07:29:10.224Z,4.23
2017-11-29T07:30:10.161Z,4.26
2017-11-29T07:31:10.238Z,4.22
2017-11-29T07:32:10.097Z,4.20
2017-11-29T07:33:10.140Z,4.26
2017-11-29T07:34:10.042Z,4.35
2017-11-29T07:35:10.060Z,4.28
2017-11-29T07:36:09.986Z,4.34
2017-11-29T07:37:10.069Z,4.30
2017-11-29T07:38:09.930Z,4.37
2017-11-29T07:39:09.986Z,4.40
2017-11-29T07:40:09.874Z,4.34
2017-11-29T07:41:09.865Z,4.38
2017-11-29T07:42:09.821Z,4.35
2017-11-29T07:43:09.900Z,4.37
2017-11-29T07:44:09.766Z,4.34
2017-11-29T07:45:09.746Z,4.37
2017-11-29T07:46:09.819Z,4.38
2017-11-29T07:47:09.692Z,4.40
2017-11-29T07:48:09.724Z,4.44
2017-11-29T07:49:09.637Z,4.44
2017-11-29T07:50:09.725Z,4.37
2017-11-29T07:51:09.642Z,4.40
2017-11-29T07:52:09.554Z,4.35
2017-11-29T07:53:09.555Z,4.42
2017-11-29T07:54:09.514Z,4.42
2017-11-29T07:55:09.471Z,4.44
2017-11-29T07:56:09.483Z,4.34
2017-11-29T07:57:09.475Z,4.37
2017-11-29T07:58:09.391Z,4.40
2017-11-29T07:59:09.378Z,4.41
2017-11-29T08:00:09.343Z,4.41
2017-11-29T08:01:09.303Z,4.40
2017-11-29T08:02:09.283Z,4.45
2017-11-29T08:03:09.302Z,4.45
2017-11-29T08:04:09.230Z,4.37
2017-11-29T08:05:09.349Z,4.37
2017-11-29T08:06:09.181Z,4.40
2017-11-29T08:07:09.141Z,4.40
2017-11-29T08:08:09.233Z,4.40
2017-11-29T08:09:09.101Z,4.44
2017-11-29T08:10:09.138Z,4.34
2017-11-29T08:11:09.032Z,4.40
2017-11-29T08:12:09.051Z,4.34
2017-11-29T08:13:08.979Z,4.37
2017-11-29T08:14:09.067Z,4.34
2017-11-29T08:15:08.936Z,4.34
2017-11-29T08:16:09.940Z,4.35
2017-11-29T08:17:08.984Z,4.41
2017-11-29T08:18:08.847Z,4.38
2017-11-29T08:19:08.891Z,4.35
2017-11-29T08:20:08.794Z,4.42
2017-11-29T08:21:08.805Z,4.38
2017-11-29T08:22:08.740Z,4.40
2017-11-29T08:23:08.808Z,4.35
2017-11-29T08:24:08.684Z,4.41
2017-11-29T08:25:08.727Z,4.31
2017-11-29T08:26:08.622Z,4.37
2017-11-29T08:27:08.658Z,4.48
2017-11-29T08:28:08.573Z,4.37
2017-11-29T08:29:08.644Z,4.52
2017-11-29T08:30:08.519Z,4.38
2017-11-29T08:31:08.625Z,4.38
2017-11-29T08:32:08.499Z,4.52
2017-11-29T08:33:08.466Z,4.48
2017-11-29T08:34:08.406Z,4.45
2017-11-29T08:35:08.479Z,4.50
2017-11-29T08:36:08.360Z,4.49
2017-11-29T08:37:08.385Z,4.45
2017-11-29T08:38:08.316Z,4.50
2017-11-29T08:39:08.298Z,4.44
2017-11-29T08:40:08.250Z,4.56
2017-11-29T08:41:08.262Z,4.52
2017-11-29T08:42:08.234Z,4.48
2017-11-29T08:43:08.182Z,4.55
2017-11-29T08:44:08.142Z,4.58
2017-11-29T08:45:08.159Z,4.52
2017-11-29T08:46:08.087Z,4.56
2017-11-29T08:47:08.141Z,4.60
2017-11-29T08:48:08.027Z,4.56
2017-11-29T08:49:08.054Z,4.58
2017-11-29T08:50:07.989Z,4.50
2017-11-29T08:51:08.063Z,4.53
2017-11-29T08:52:07.922Z,4.56
2017-11-29T08:53:07.976Z,4.59
2017-11-29T08:54:08.063Z,4.53
2017-11-29T08:55:07.889Z,4.53
2017-11-29T08:56:07.878Z,4.60
2017-11-29T08:57:07.900Z,4.58
2017-11-29T08:58:08.315Z,4.59
2017-11-29T08:59:07.816Z,4.56
2017-11-29T09:00:07.706Z,4.59
2017-11-29T09:01:07.799Z,4.56
2017-11-29T09:02:07.654Z,4.73
2017-11-29T09:03:07.732Z,4.59
2017-11-29T09:04:07.596Z,4.63
2017-11-29T09:05:07.644Z,4.67
2017-11-29T09:06:07.571Z,4.63
2017-11-29T09:07:07.550Z,4.60
2017-11-29T09:08:07.672Z,4.67
2017-11-29T09:09:07.465Z,4.71
2017-11-29T09:10:07.465Z,4.73
2017-11-29T09:11:07.413Z,4.62
2017-11-29T09:12:07.474Z,4.71
2017-11-29T09:13:07.349Z,4.74
2017-11-29T09:14:07.451Z,4.80
2017-11-29T09:15:07.295Z,4.74
2017-11-29T09:16:07.300Z,4.80
2017-11-29T09:17:07.246Z,4.75
2017-11-29T09:18:07.311Z,4.84
2017-11-29T09:19:07.191Z,4.93
2017-11-29T09:20:07.163Z,4.92
2017-11-29T09:21:07.144Z,4.89
2017-11-29T09:22:07.132Z,4.93
2017-11-29T09:23:07.079Z,4.90
2017-11-29T09:24:07.139Z,4.96
2017-11-29T09:25:07.033Z,4.99
2017-11-29T09:26:07.004Z,4.94
2017-11-29T09:27:07.056Z,4.93
2017-11-29T09:28:06.950Z,4.96
2017-11-29T09:29:06.970Z,4.99
2017-11-29T09:30:06.901Z,4.84
2017-11-29T09:31:06.981Z,4.94
2017-11-29T09:32:06.845Z,4.89
2017-11-29T09:33:06.894Z,4.87
2017-11-29T09:34:06.790Z,4.82
2017-11-29T09:35:06.798Z,4.73
2017-11-29T09:36:06.731Z,4.68
2017-11-29T09:37:06.818Z,4.63
2017-11-29T09:38:06.679Z,4.62
2017-11-29T09:39:06.717Z,4.63
2017-11-29T09:40:06.620Z,4.58
2017-11-29T09:41:06.632Z,4.60
2017-11-29T09:42:06.571Z,4.59
2017-11-29T09:43:06.546Z,4.55
2017-11-29T09:44:06.546Z,4.58
2017-11-29T09:45:06.490Z,4.53
2017-11-29T09:46:06.560Z,4.56
2017-11-29T09:47:06.437Z,4.56
2017-11-29T09:48:06.409Z,4.44
2017-11-29T09:49:06.378Z,4.48
2017-11-29T09:50:06.379Z,4.50
2017-11-29T09:51:06.333Z,4.52
2017-11-29T09:52:06.397Z,4.48
2017-11-29T09:53:06.269Z,4.53
2017-11-29T09:54:06.263Z,4.53
2017-11-29T09:55:06.233Z,4.56
2017-11-29T09:56:06.215Z,4.60
2017-11-29T09:57:06.168Z,4.56
2017-11-29T09:58:06.226Z,4.53
2017-11-29T09:59:06.104Z,4.59
2017-11-29T10:00:06.136Z,4.66
2017-11-29T10:01:06.057Z,4.62
2017-11-29T10:02:07.074Z,4.53
2017-11-29T10:03:06.011Z,4.58
2017-11-29T10:04:06.057Z,4.58
2017-11-29T10:05:05.980Z,4.52
2017-11-29T10:06:05.928Z,4.62
2017-11-29T10:07:05.975Z,4.56
2017-11-29T10:08:05.885Z,4.50
2017-11-29T10:09:05.881Z,4.58
2017-11-29T10:10:05.893Z,4.58
2017-11-29T10:11:05.780Z,4.55
2017-11-29T10:12:05.780Z,4.53
2017-11-29T10:13:05.754Z,4.60
2017-11-29T10:14:05.709Z,4.56
2017-11-29T10:15:05.687Z,4.56
2017-11-29T10:16:05.718Z,4.63
2017-11-29T10:17:05.624Z,4.59
2017-11-29T10:18:05.614Z,4.58
2017-11-29T10:19:05.598Z,4.50
2017-11-29T10:20:05.643Z,4.56
2017-11-29T10:21:05.516Z,4.67
2017-11-29T10:22:05.553Z,4.58
2017-11-29T10:23:05.462Z,4.50
2017-11-29T10:24:05.459Z,4.49
2017-11-29T10:25:05.414Z,4.45
2017-11-29T10:26:05.486Z,4.35
2017-11-29T10:27:05.362Z,4.48
2017-11-29T10:28:05.391Z,4.44
2017-11-29T10:29:05.341Z,4.45
2017-11-29T10:30:05.300Z,4.48
2017-11-29T10:31:05.251Z,4.45
2017-11-29T10:32:05.305Z,4.44
2017-11-29T10:33:05.188Z,4.48
2017-11-29T10:34:05.220Z,4.55
2017-11-29T10:35:05.130Z,4.55
2017-11-29T10:36:05.130Z,4.52
2017-11-29T10:37:05.084Z,4.53
2017-11-29T10:38:05.145Z,4.48
2017-11-29T10:39:05.040Z,4.55
2017-11-29T10:40:04.994Z,4.58
2017-11-29T10:41:05.055Z,4.55
2017-11-29T10:42:04.968Z,4.56
2017-11-29T10:43:04.965Z,4.56
2017-11-29T10:44:04.888Z,4.45
2017-11-29T10:45:04.979Z,4.56
2017-11-29T10:46:04.833Z,4.56
2017-11-29T10:47:04.892Z,4.56
2017-11-29T10:48:04.790Z,4.53
2017-11-29T10:49:04.795Z,4.55
2017-11-29T10:50:04.729Z,4.60
2017-11-29T10:51:04.815Z,4.59
2017-11-29T10:52:04.682Z,4.60
2017-11-29T10:53:04.720Z,4.58
2017-11-29T10:54:04.624Z,4.58
2017-11-29T10:55:04.646Z,4.59
2017-11-29T10:56:04.570Z,4.52
2017-11-29T10:57:04.652Z,4.63
2017-11-29T10:58:04.527Z,4.62
2017-11-29T10:59:04.559Z,4.67
2017-11-29T11:00:04.462Z,4.66
2017-11-29T11:01:04.466Z,4.66
2017-11-29T11:02:04.406Z,4.70
2017-11-29T11:03:04.472Z,4.70
2017-11-29T11:04:04.357Z,4.80
2017-11-29T11:05:04.388Z,4.78
2017-11-29T11:06:04.299Z,4.84
2017-11-29T11:07:04.293Z,4.75
2017-11-29T11:08:04.243Z,4.89
2017-11-29T11:09:04.307Z,4.92
2017-11-29T11:10:04.185Z,4.94
2017-11-29T11:11:04.217Z,5.00
2017-11-29T11:12:04.132Z,4.89
2017-11-29T11:13:04.136Z,4.99
2017-11-29T11:14:04.080Z,5.08
2017-11-29T11:15:04.139Z,5.00
2017-11-29T11:16:04.032Z,5.04
2017-11-29T11:17:03.999Z,5.11
2017-11-29T11:18:04.065Z,5.14
2017-11-29T11:19:03.944Z,5.12
2017-11-29T11:20:03.961Z,5.20
2017-11-29T11:21:03.894Z,5.11
2017-11-29T11:22:03.861Z,5.14
2017-11-29T11:23:03.837Z,5.18
2017-11-29T11:24:03.893Z,5.18
2017-11-29T11:25:03.783Z,5.12
2017-11-29T11:26:03.798Z,5.11
2017-11-29T11:27:03.737Z,4.99
2017-11-29T11:28:03.815Z,5.14
2017-11-29T11:29:03.669Z,4.99
2017-11-29T11:30:03.716Z,5.08
2017-11-29T11:31:03.729Z,5.00
2017-11-29T11:32:03.597Z,5.04
2017-11-29T11:33:03.634Z,4.99
2017-11-29T11:34:03.543Z,5.07
2017-11-29T11:35:03.544Z,5.08
2017-11-29T11:36:03.485Z,5.08
2017-11-29T11:37:03.558Z,5.08
2017-11-29T11:38:03.434Z,5.11
2017-11-29T11:39:03.466Z,5.05
2017-11-29T11:40:03.379Z,5.12
2017-11-29T11:41:03.394Z,5.15
2017-11-29T11:42:03.334Z,5.12
2017-11-29T11:43:03.392Z,5.15
2017-11-29T11:44:03.276Z,5.15
2017-11-29T11:45:03.298Z,5.14
2017-11-29T11:46:03.214Z,5.25
2017-11-29T11:47:03.210Z,5.21
2017-11-29T11:48:03.170Z,5.29
2017-11-29T11:49:03.222Z,5.33
2017-11-29T11:50:03.134Z,5.36
2017-11-29T11:51:03.134Z,5.30
2017-11-29T11:52:03.059Z,5.35
2017-11-29T11:53:03.029Z,5.33
2017-11-29T11:54:03.005Z,5.33
2017-11-29T11:55:03.055Z,5.30
2017-11-29T11:56:02.955Z,5.39
2017-11-29T11:57:02.932Z,5.36
2017-11-29T11:58:02.916Z,5.44
2017-11-29T11:59:02.875Z,5.47
2017-11-29T12:00:02.885Z,5.43
2017-11-29T12:01:02.812Z,5.51
2017-11-29T12:02:02.899Z,5.46
2017-11-29T12:03:02.758Z,5.43
2017-11-29T12:04:02.750Z,5.38
2017-11-29T12:05:02.809Z,5.39
2017-11-29T12:06:02.682Z,5.39
2017-11-29T12:07:02.718Z,5.44
2017-11-29T12:08:02.638Z,5.33
2017-11-29T12:09:02.625Z,5.39
2017-11-29T12:10:02.578Z,5.32
2017-11-29T12:11:02.638Z,5.35
2017-11-29T12:12:02.523Z,5.33
2017-11-29T12:13:02.491Z,5.29
2017-11-29T12:14:02.559Z,5.30
2017-11-29T12:15:02.443Z,5.29
2017-11-29T12:16:02.469Z,5.25
2017-11-29T12:17:02.417Z,5.29
2017-11-29T12:18:02.366Z,5.29
2017-11-29T12:19:02.335Z,5.25
2017-11-29T12:20:02.395Z,5.35
2017-11-29T12:21:02.278Z,5.30
2017-11-29T12:22:02.305Z,5.30
2017-11-29T12:23:02.222Z,5.26
2017-11-29T12:24:02.308Z,5.26
2017-11-29T12:25:02.175Z,5.26
2017-11-29T12:26:02.226Z,5.30
2017-11-29T12:27:02.116Z,5.28
2017-11-29T12:28:02.132Z,5.28
2017-11-29T12:29:02.075Z,5.33
2017-11-29T12:30:02.044Z,5.26
2017-11-29T12:31:02.009Z,5.29
2017-11-29T12:32:01.990Z,5.28
2017-11-29T12:33:01.960Z,5.25
2017-11-29T12:34:01.970Z,5.21
2017-11-29T12:35:01.904Z,5.23
2017-11-29T12:36:01.978Z,5.25
2017-11-29T12:37:01.857Z,5.36
2017-11-29T12:38:01.887Z,5.33
2017-11-29T12:39:01.799Z,5.46
2017-11-29T12:40:01.779Z,5.50
2017-11-29T12:41:01.752Z,5.46
2017-11-29T12:42:01.810Z,5.50
2017-11-29T12:43:01.688Z,5.54
2017-11-29T12:44:01.715Z,5.53
2017-11-29T12:45:01.648Z,5.48
2017-11-29T12:46:01.625Z,5.39
2017-11-29T12:47:01.592Z,5.54
2017-11-29T12:48:01.642Z,5.54
2017-11-29T12:49:01.547Z,5.46
2017-11-29T12:50:01.550Z,5.46
2017-11-29T12:51:01.479Z,5.53
2017-11-29T12:52:01.452Z,5.51
2017-11-29T12:53:01.427Z,5.44
2017-11-29T12:54:01.473Z,5.44
2017-11-29T12:55:01.374Z,5.46
2017-11-29T12:56:01.383Z,5.46
2017-11-29T12:57:01.392Z,5.44
2017-11-29T12:58:01.290Z,5.46
2017-11-29T12:59:01.307Z,5.44
2017-11-29T13:00:01.233Z,5.46
2017-11-29T13:01:01.320Z,5.44
2017-11-29T13:02:01.179Z,5.46
2017-11-29T13:03:01.221Z,5.43
2017-11-29T13:04:01.139Z,5.36
2017-11-29T13:05:01.129Z,5.41
2017-11-29T13:06:01.074Z,5.35
2017-11-29T13:07:01.141Z,5.41
2017-11-29T13:08:01.020Z,5.35
2017-11-29T13:09:01.055Z,5.35
2017-11-29T13:10:00.968Z,5.43
2017-11-29T13:11:00.965Z,5.39
2017-11-29T13:12:00.918Z,5.36
2017-11-29T13:13:00.976Z,5.35
2017-11-29T13:14:00.861Z,5.32
2017-11-29T13:15:00.892Z,5.39
2017-11-29T13:16:00.812Z,5.43
2017-11-29T13:17:00.791Z,5.38
2017-11-29T13:18:00.803Z,5.39